sensor_id;sensor_type;location;lat;lon;timestamp;temperature;humidity
51557;DHT22;38766;53.194;5.532;2024-01-10T00:02:00;-2.00;99.90
51557;DHT22;38766;53.194;5.532;2024-01-10T00:04:26;-2.00;99.90
51557;DHT22;38766;53.194;5.532;2024-01-10T00:06:51;-2.00;99.90
51557;DHT22;38766;53.194;5.532;2024-01-10T00:09:17;-2.00;99.90
51557;DHT22;38766;53.194;5.532;2024-01-10T00:11:43;-2.00;99.90
51557;DHT22;38766;53.194;5.532;2024-01-10T00:14:09;-2.00;99.90
51557;DHT22;38766;53.194;5.532;2024-01-10T00:16:35;-2.00;99.90
51557;DHT22;38766;53.194;5.532;2024-01-10T00:19:01;-2.00;99.90
51557;DHT22;38766;53.194;5.532;2024-01-10T00:21:26;-2.00;99.90
51557;DHT22;38766;53.194;5.532;2024-01-10T00:23:52;-2.00;99.90
51557;DHT22;38766;53.194;5.532;2024-01-10T00:26:18;-2.00;99.90
51557;DHT22;38766;53.194;5.532;2024-01-10T00:28:43;-2.00;99.90
51557;DHT22;38766;53.194;5.532;2024-01-10T00:31:11;-2.00;99.90
51557;DHT22;38766;53.194;5.532;2024-01-10T00:33:38;-2.00;99.90
51557;DHT22;38766;53.194;5.532;2024-01-10T00:36:04;-2.00;99.90
51557;DHT22;38766;53.194;5.532;2024-01-10T00:38:29;-2.10;99.90
51557;DHT22;38766;53.194;5.532;2024-01-10T00:40:55;-2.00;99.90
51557;DHT22;38766;53.194;5.532;2024-01-10T00:43:21;-2.10;99.90
51557;DHT22;38766;53.194;5.532;2024-01-10T00:45:47;-2.10;99.90
51557;DHT22;38766;53.194;5.532;2024-01-10T00:48:12;-2.10;99.90
51557;DHT22;38766;53.194;5.532;2024-01-10T00:50:38;-2.10;99.90
51557;DHT22;38766;53.194;5.532;2024-01-10T00:53:03;-2.10;99.90
51557;DHT22;38766;53.194;5.532;2024-01-10T00:55:29;-2.00;99.90
51557;DHT22;38766;53.194;5.532;2024-01-10T00:57:55;-2.10;99.90
51557;DHT22;38766;53.194;5.532;2024-01-10T01:00:20;-2.10;99.90
51557;DHT22;38766;53.194;5.532;2024-01-10T01:02:46;-2.10;99.90
51557;DHT22;38766;53.194;5.532;2024-01-10T01:05:12;-2.10;99.90
51557;DHT22;38766;53.194;5.532;2024-01-10T01:07:37;-2.10;99.90
51557;DHT22;38766;53.194;5.532;2024-01-10T01:10:03;-2.10;99.90
51557;DHT22;38766;53.194;5.532;2024-01-10T01:12:29;-2.10;99.90
51557;DHT22;38766;53.194;5.532;2024-01-10T01:14:55;-2.10;99.90
51557;DHT22;38766;53.194;5.532;2024-01-10T01:17:20;-2.10;99.90
51557;DHT22;38766;53.194;5.532;2024-01-10T01:19:46;-2.10;99.90
51557;DHT22;38766;53.194;5.532;2024-01-10T01:22:12;-2.10;99.90
51557;DHT22;38766;53.194;5.532;2024-01-10T01:24:37;-2.10;99.90
51557;DHT22;38766;53.194;5.532;2024-01-10T01:27:03;-2.10;99.90
51557;DHT22;38766;53.194;5.532;2024-01-10T01:29:29;-2.10;99.90
51557;DHT22;38766;53.194;5.532;2024-01-10T01:31:55;-2.10;99.90
51557;DHT22;38766;53.194;5.532;2024-01-10T01:34:20;-2.10;99.90
51557;DHT22;38766;53.194;5.532;2024-01-10T01:36:46;-2.10;99.90
51557;DHT22;38766;53.194;5.532;2024-01-10T01:39:11;-2.10;99.90
51557;DHT22;38766;53.194;5.532;2024-01-10T01:41:39;-2.10;99.90
51557;DHT22;38766;53.194;5.532;2024-01-10T01:44:05;-2.10;99.90
51557;DHT22;38766;53.194;5.532;2024-01-10T01:46:31;-2.20;99.90
51557;DHT22;38766;53.194;5.532;2024-01-10T01:48:58;-2.10;99.90
51557;DHT22;38766;53.194;5.532;2024-01-10T01:51:24;-2.10;99.90
51557;DHT22;38766;53.194;5.532;2024-01-10T01:53:52;-2.20;99.90
51557;DHT22;38766;53.194;5.532;2024-01-10T01:56:18;-2.20;99.90
51557;DHT22;38766;53.194;5.532;2024-01-10T01:58:45;-2.20;99.90
51557;DHT22;38766;53.194;5.532;2024-01-10T02:01:13;-2.20;99.90
51557;DHT22;38766;53.194;5.532;2024-01-10T02:03:40;-2.20;99.90
51557;DHT22;38766;53.194;5.532;2024-01-10T02:06:06;-2.20;99.90
51557;DHT22;38766;53.194;5.532;2024-01-10T02:08:33;-2.20;99.90
51557;DHT22;38766;53.194;5.532;2024-01-10T02:10:59;-2.20;99.90
51557;DHT22;38766;53.194;5.532;2024-01-10T02:13:25;-2.20;99.90
51557;DHT22;38766;53.194;5.532;2024-01-10T02:15:52;-2.20;99.90
51557;DHT22;38766;53.194;5.532;2024-01-10T02:18:17;-2.20;99.90
51557;DHT22;38766;53.194;5.532;2024-01-10T02:20:46;-2.20;99.90
51557;DHT22;38766;53.194;5.532;2024-01-10T02:23:12;-2.20;99.90
51557;DHT22;38766;53.194;5.532;2024-01-10T02:25:39;-2.20;99.90
51557;DHT22;38766;53.194;5.532;2024-01-10T02:28:05;-2.30;99.90
51557;DHT22;38766;53.194;5.532;2024-01-10T02:30:31;-2.30;99.90
51557;DHT22;38766;53.194;5.532;2024-01-10T02:33:04;-2.30;99.90
51557;DHT22;38766;53.194;5.532;2024-01-10T02:35:30;-2.20;99.90
51557;DHT22;38766;53.194;5.532;2024-01-10T02:37:58;-2.30;99.90
51557;DHT22;38766;53.194;5.532;2024-01-10T02:40:24;-2.30;99.90
51557;DHT22;38766;53.194;5.532;2024-01-10T02:42:50;-2.30;99.90
51557;DHT22;38766;53.194;5.532;2024-01-10T02:45:17;-2.30;99.90
51557;DHT22;38766;53.194;5.532;2024-01-10T02:47:42;-2.30;99.90
51557;DHT22;38766;53.194;5.532;2024-01-10T02:50:08;-2.40;99.90
51557;DHT22;38766;53.194;5.532;2024-01-10T02:52:34;-2.40;99.90
51557;DHT22;38766;53.194;5.532;2024-01-10T02:55:00;-2.40;99.90
51557;DHT22;38766;53.194;5.532;2024-01-10T02:57:25;-2.30;99.90
51557;DHT22;38766;53.194;5.532;2024-01-10T02:59:51;-2.30;99.90
51557;DHT22;38766;53.194;5.532;2024-01-10T03:02:17;-2.30;99.90
51557;DHT22;38766;53.194;5.532;2024-01-10T03:04:43;-2.40;99.90
51557;DHT22;38766;53.194;5.532;2024-01-10T03:07:10;-2.40;99.90
51557;DHT22;38766;53.194;5.532;2024-01-10T03:09:35;-2.40;99.90
51557;DHT22;38766;53.194;5.532;2024-01-10T03:12:01;-2.30;99.90
51557;DHT22;38766;53.194;5.532;2024-01-10T03:14:26;-2.30;99.90
51557;DHT22;38766;53.194;5.532;2024-01-10T03:16:52;-2.30;99.90
51557;DHT22;38766;53.194;5.532;2024-01-10T03:19:18;-2.30;99.90
51557;DHT22;38766;53.194;5.532;2024-01-10T03:21:44;-2.40;99.90
51557;DHT22;38766;53.194;5.532;2024-01-10T03:24:10;-2.40;99.90
51557;DHT22;38766;53.194;5.532;2024-01-10T03:26:35;-2.40;99.90
51557;DHT22;38766;53.194;5.532;2024-01-10T03:29:01;-2.40;99.90
51557;DHT22;38766;53.194;5.532;2024-01-10T03:31:33;-2.40;99.90
51557;DHT22;38766;53.194;5.532;2024-01-10T03:34:01;-2.50;99.90
51557;DHT22;38766;53.194;5.532;2024-01-10T03:36:27;-2.40;99.90
51557;DHT22;38766;53.194;5.532;2024-01-10T03:38:52;-2.40;99.90
51557;DHT22;38766;53.194;5.532;2024-01-10T03:41:19;-2.40;99.90
51557;DHT22;38766;53.194;5.532;2024-01-10T03:43:45;-2.40;99.90
51557;DHT22;38766;53.194;5.532;2024-01-10T03:46:12;-2.40;99.90
51557;DHT22;38766;53.194;5.532;2024-01-10T03:48:37;-2.40;99.90
51557;DHT22;38766;53.194;5.532;2024-01-10T03:51:06;-2.40;99.90
51557;DHT22;38766;53.194;5.532;2024-01-10T03:53:31;-2.40;99.90
51557;DHT22;38766;53.194;5.532;2024-01-10T03:55:57;-2.40;99.90
51557;DHT22;38766;53.194;5.532;2024-01-10T03:58:23;-2.40;99.90
51557;DHT22;38766;53.194;5.532;2024-01-10T04:00:49;-2.40;99.90
51557;DHT22;38766;53.194;5.532;2024-01-10T04:03:15;-2.40;99.90
51557;DHT22;38766;53.194;5.532;2024-01-10T04:05:42;-2.40;99.90
51557;DHT22;38766;53.194;5.532;2024-01-10T04:08:08;-2.40;99.90
51557;DHT22;38766;53.194;5.532;2024-01-10T04:10:34;-2.40;99.90
51557;DHT22;38766;53.194;5.532;2024-01-10T04:12:59;-2.40;99.90
51557;DHT22;38766;53.194;5.532;2024-01-10T04:15:28;-2.40;99.90
51557;DHT22;38766;53.194;5.532;2024-01-10T04:17:53;-2.40;99.90
51557;DHT22;38766;53.194;5.532;2024-01-10T04:20:19;-2.40;99.90
51557;DHT22;38766;53.194;5.532;2024-01-10T04:22:45;-2.40;99.90
51557;DHT22;38766;53.194;5.532;2024-01-10T04:25:11;-2.40;99.90
51557;DHT22;38766;53.194;5.532;2024-01-10T04:27:36;-2.40;99.90
51557;DHT22;38766;53.194;5.532;2024-01-10T04:30:02;-2.40;99.90
51557;DHT22;38766;53.194;5.532;2024-01-10T04:32:28;-2.40;99.90
51557;DHT22;38766;53.194;5.532;2024-01-10T04:34:54;-2.40;99.90
51557;DHT22;38766;53.194;5.532;2024-01-10T04:37:20;-2.40;99.90
51557;DHT22;38766;53.194;5.532;2024-01-10T04:39:45;-2.40;99.90
51557;DHT22;38766;53.194;5.532;2024-01-10T04:42:11;-2.40;99.90
51557;DHT22;38766;53.194;5.532;2024-01-10T04:44:37;-2.50;99.90
51557;DHT22;38766;53.194;5.532;2024-01-10T04:47:03;-2.50;99.90
51557;DHT22;38766;53.194;5.532;2024-01-10T04:49:29;-2.50;99.90
51557;DHT22;38766;53.194;5.532;2024-01-10T04:51:55;-2.50;99.90
51557;DHT22;38766;53.194;5.532;2024-01-10T04:54:21;-2.50;99.90
51557;DHT22;38766;53.194;5.532;2024-01-10T04:56:46;-2.50;99.90
51557;DHT22;38766;53.194;5.532;2024-01-10T04:59:12;-2.60;99.90
51557;DHT22;38766;53.194;5.532;2024-01-10T05:01:38;-2.50;99.90
51557;DHT22;38766;53.194;5.532;2024-01-10T05:04:04;-2.50;99.90
51557;DHT22;38766;53.194;5.532;2024-01-10T05:06:29;-2.50;99.90
51557;DHT22;38766;53.194;5.532;2024-01-10T05:08:55;-2.50;99.90
51557;DHT22;38766;53.194;5.532;2024-01-10T05:11:25;-2.50;99.90
51557;DHT22;38766;53.194;5.532;2024-01-10T05:13:54;-2.50;99.90
51557;DHT22;38766;53.194;5.532;2024-01-10T05:16:19;-2.60;99.90
51557;DHT22;38766;53.194;5.532;2024-01-10T05:18:45;-2.60;99.90
51557;DHT22;38766;53.194;5.532;2024-01-10T05:21:12;-2.50;99.90
51557;DHT22;38766;53.194;5.532;2024-01-10T05:23:37;-2.60;99.90
51557;DHT22;38766;53.194;5.532;2024-01-10T05:26:05;-2.60;99.90
51557;DHT22;38766;53.194;5.532;2024-01-10T05:28:30;-2.60;99.90
51557;DHT22;38766;53.194;5.532;2024-01-10T05:30:56;-2.60;99.90
51557;DHT22;38766;53.194;5.532;2024-01-10T05:33:22;-2.60;99.90
51557;DHT22;38766;53.194;5.532;2024-01-10T05:35:48;-2.60;99.90
51557;DHT22;38766;53.194;5.532;2024-01-10T05:38:14;-2.70;99.90
51557;DHT22;38766;53.194;5.532;2024-01-10T05:40:39;-2.70;99.90
51557;DHT22;38766;53.194;5.532;2024-01-10T05:43:06;-2.70;99.90
51557;DHT22;38766;53.194;5.532;2024-01-10T05:45:32;-2.70;99.90
51557;DHT22;38766;53.194;5.532;2024-01-10T05:47:58;-2.80;99.90
51557;DHT22;38766;53.194;5.532;2024-01-10T05:50:24;-2.80;99.90
51557;DHT22;38766;53.194;5.532;2024-01-10T05:52:53;-2.80;99.90
51557;DHT22;38766;53.194;5.532;2024-01-10T05:55:19;-2.80;99.90
51557;DHT22;38766;53.194;5.532;2024-01-10T05:57:45;-2.80;99.90
51557;DHT22;38766;53.194;5.532;2024-01-10T06:00:11;-2.80;99.90
51557;DHT22;38766;53.194;5.532;2024-01-10T06:02:37;-2.80;99.90
51557;DHT22;38766;53.194;5.532;2024-01-10T06:05:09;-2.80;99.90
51557;DHT22;38766;53.194;5.532;2024-01-10T06:07:39;-2.70;99.90
51557;DHT22;38766;53.194;5.532;2024-01-10T06:10:06;-2.70;99.90
51557;DHT22;38766;53.194;5.532;2024-01-10T06:12:32;-2.70;99.90
51557;DHT22;38766;53.194;5.532;2024-01-10T06:14:58;-2.80;99.90
51557;DHT22;38766;53.194;5.532;2024-01-10T06:17:24;-2.80;99.90
51557;DHT22;38766;53.194;5.532;2024-01-10T06:19:50;-2.80;99.90
51557;DHT22;38766;53.194;5.532;2024-01-10T06:22:15;-2.80;99.90
51557;DHT22;38766;53.194;5.532;2024-01-10T06:24:42;-2.80;99.90
51557;DHT22;38766;53.194;5.532;2024-01-10T06:27:07;-2.80;99.90
51557;DHT22;38766;53.194;5.532;2024-01-10T06:29:33;-2.80;99.90
51557;DHT22;38766;53.194;5.532;2024-01-10T06:31:59;-2.80;99.90
51557;DHT22;38766;53.194;5.532;2024-01-10T06:34:27;-2.80;99.90
51557;DHT22;38766;53.194;5.532;2024-01-10T06:36:52;-2.80;99.90
51557;DHT22;38766;53.194;5.532;2024-01-10T06:39:18;-2.80;99.90
51557;DHT22;38766;53.194;5.532;2024-01-10T06:41:46;-2.80;99.90
51557;DHT22;38766;53.194;5.532;2024-01-10T06:44:12;-2.70;99.90
51557;DHT22;38766;53.194;5.532;2024-01-10T06:46:38;-2.80;99.90
51557;DHT22;38766;53.194;5.532;2024-01-10T06:49:03;-2.80;99.90
51557;DHT22;38766;53.194;5.532;2024-01-10T06:51:29;-2.80;99.90
51557;DHT22;38766;53.194;5.532;2024-01-10T06:53:55;-2.80;99.90
51557;DHT22;38766;53.194;5.532;2024-01-10T06:56:28;-2.80;99.90
51557;DHT22;38766;53.194;5.532;2024-01-10T06:58:53;-2.70;99.90
51557;DHT22;38766;53.194;5.532;2024-01-10T07:01:20;-2.80;99.90
51557;DHT22;38766;53.194;5.532;2024-01-10T07:03:47;-2.80;99.90
51557;DHT22;38766;53.194;5.532;2024-01-10T07:06:13;-2.80;99.90
51557;DHT22;38766;53.194;5.532;2024-01-10T07:08:41;-2.80;99.90
51557;DHT22;38766;53.194;5.532;2024-01-10T07:11:10;-2.70;99.90
51557;DHT22;38766;53.194;5.532;2024-01-10T07:13:40;-2.70;99.90
51557;DHT22;38766;53.194;5.532;2024-01-10T07:16:06;-2.70;99.90
51557;DHT22;38766;53.194;5.532;2024-01-10T07:18:32;-2.70;99.90
51557;DHT22;38766;53.194;5.532;2024-01-10T07:20:58;-2.70;99.90
51557;DHT22;38766;53.194;5.532;2024-01-10T07:23:23;-2.70;99.90
51557;DHT22;38766;53.194;5.532;2024-01-10T07:25:49;-2.80;99.90
51557;DHT22;38766;53.194;5.532;2024-01-10T07:28:16;-2.70;99.90
51557;DHT22;38766;53.194;5.532;2024-01-10T07:30:41;-2.70;99.90
51557;DHT22;38766;53.194;5.532;2024-01-10T07:33:07;-2.70;99.90
51557;DHT22;38766;53.194;5.532;2024-01-10T07:35:33;-2.70;99.90
51557;DHT22;38766;53.194;5.532;2024-01-10T07:37:59;-2.70;99.90
51557;DHT22;38766;53.194;5.532;2024-01-10T07:40:24;-2.70;99.90
51557;DHT22;38766;53.194;5.532;2024-01-10T07:42:52;-2.80;99.90
51557;DHT22;38766;53.194;5.532;2024-01-10T07:45:18;-2.70;99.90
51557;DHT22;38766;53.194;5.532;2024-01-10T07:47:44;-2.70;99.90
51557;DHT22;38766;53.194;5.532;2024-01-10T07:50:11;-2.70;99.90
51557;DHT22;38766;53.194;5.532;2024-01-10T07:52:40;-2.70;99.90
51557;DHT22;38766;53.194;5.532;2024-01-10T07:55:06;-2.70;99.90
51557;DHT22;38766;53.194;5.532;2024-01-10T07:57:33;-2.70;99.90
51557;DHT22;38766;53.194;5.532;2024-01-10T07:59:59;-2.70;99.90
51557;DHT22;38766;53.194;5.532;2024-01-10T08:02:25;-2.70;99.90
51557;DHT22;38766;53.194;5.532;2024-01-10T08:04:52;-2.70;99.90
51557;DHT22;38766;53.194;5.532;2024-01-10T08:07:17;-2.70;99.90
51557;DHT22;38766;53.194;5.532;2024-01-10T08:09:43;-2.70;99.90
51557;DHT22;38766;53.194;5.532;2024-01-10T08:12:09;-2.70;99.90
51557;DHT22;38766;53.194;5.532;2024-01-10T08:14:34;-2.60;99.90
51557;DHT22;38766;53.194;5.532;2024-01-10T08:17:00;-2.60;99.90
51557;DHT22;38766;53.194;5.532;2024-01-10T08:19:26;-2.60;99.90
51557;DHT22;38766;53.194;5.532;2024-01-10T08:21:53;-2.60;99.90
51557;DHT22;38766;53.194;5.532;2024-01-10T08:24:19;-2.60;99.90
51557;DHT22;38766;53.194;5.532;2024-01-10T08:26:45;-2.50;99.90
51557;DHT22;38766;53.194;5.532;2024-01-10T08:29:10;-2.60;99.90
51557;DHT22;38766;53.194;5.532;2024-01-10T08:31:36;-2.50;99.90
51557;DHT22;38766;53.194;5.532;2024-01-10T08:34:01;-2.50;99.90
51557;DHT22;38766;53.194;5.532;2024-01-10T08:36:28;-2.50;99.90
51557;DHT22;38766;53.194;5.532;2024-01-10T08:38:54;-2.50;99.90
51557;DHT22;38766;53.194;5.532;2024-01-10T08:41:19;-2.40;99.90
51557;DHT22;38766;53.194;5.532;2024-01-10T08:43:46;-2.40;99.90
51557;DHT22;38766;53.194;5.532;2024-01-10T08:46:12;-2.40;99.90
51557;DHT22;38766;53.194;5.532;2024-01-10T08:48:38;-2.30;99.90
51557;DHT22;38766;53.194;5.532;2024-01-10T08:51:03;-2.30;99.90
51557;DHT22;38766;53.194;5.532;2024-01-10T08:53:29;-2.30;99.90
51557;DHT22;38766;53.194;5.532;2024-01-10T08:55:55;-2.20;99.90
51557;DHT22;38766;53.194;5.532;2024-01-10T08:58:21;-2.20;99.90
51557;DHT22;38766;53.194;5.532;2024-01-10T09:00:47;-2.10;99.90
51557;DHT22;38766;53.194;5.532;2024-01-10T09:03:12;-2.10;99.90
51557;DHT22;38766;53.194;5.532;2024-01-10T09:05:38;-2.00;99.90
51557;DHT22;38766;53.194;5.532;2024-01-10T09:08:04;-2.00;99.90
51557;DHT22;38766;53.194;5.532;2024-01-10T09:10:30;-1.90;99.90
51557;DHT22;38766;53.194;5.532;2024-01-10T09:12:57;-1.80;99.90
51557;DHT22;38766;53.194;5.532;2024-01-10T09:15:23;-1.80;99.90
51557;DHT22;38766;53.194;5.532;2024-01-10T09:17:50;-1.70;99.90
51557;DHT22;38766;53.194;5.532;2024-01-10T09:20:17;-1.70;99.90
51557;DHT22;38766;53.194;5.532;2024-01-10T09:22:43;-1.60;99.90
51557;DHT22;38766;53.194;5.532;2024-01-10T09:25:10;-1.50;99.90
51557;DHT22;38766;53.194;5.532;2024-01-10T09:27:39;-1.40;99.90
51557;DHT22;38766;53.194;5.532;2024-01-10T09:30:07;-1.30;99.90
51557;DHT22;38766;53.194;5.532;2024-01-10T09:32:36;-1.20;99.90
51557;DHT22;38766;53.194;5.532;2024-01-10T09:35:02;-1.00;99.90
51557;DHT22;38766;53.194;5.532;2024-01-10T09:37:28;-0.90;99.90
51557;DHT22;38766;53.194;5.532;2024-01-10T09:39:54;-0.80;99.90
51557;DHT22;38766;53.194;5.532;2024-01-10T09:42:20;-0.70;99.90
51557;DHT22;38766;53.194;5.532;2024-01-10T09:44:52;-0.60;99.90
51557;DHT22;38766;53.194;5.532;2024-01-10T09:47:20;-0.50;99.90
51557;DHT22;38766;53.194;5.532;2024-01-10T09:49:46;-0.40;99.90
51557;DHT22;38766;53.194;5.532;2024-01-10T09:52:20;-0.30;99.90
51557;DHT22;38766;53.194;5.532;2024-01-10T09:54:56;-0.30;99.90
51557;DHT22;38766;53.194;5.532;2024-01-10T09:57:23;-0.20;99.90
51557;DHT22;38766;53.194;5.532;2024-01-10T09:59:50;-0.20;99.90
51557;DHT22;38766;53.194;5.532;2024-01-10T10:02:23;-0.30;99.90
51557;DHT22;38766;53.194;5.532;2024-01-10T10:05:17;-0.20;99.90
51557;DHT22;38766;53.194;5.532;2024-01-10T10:07:47;-0.30;99.90
51557;DHT22;38766;53.194;5.532;2024-01-10T10:10:14;-0.30;99.90
51557;DHT22;38766;53.194;5.532;2024-01-10T10:12:48;-0.30;99.90
51557;DHT22;38766;53.194;5.532;2024-01-10T10:15:15;-0.30;99.90
51557;DHT22;38766;53.194;5.532;2024-01-10T10:17:45;-0.30;99.90
51557;DHT22;38766;53.194;5.532;2024-01-10T10:20:14;-0.30;99.90
51557;DHT22;38766;53.194;5.532;2024-01-10T10:23:06;-0.30;99.90
51557;DHT22;38766;53.194;5.532;2024-01-10T10:27:59;-0.20;99.90
51557;DHT22;38766;53.194;5.532;2024-01-10T10:30:25;-0.20;99.90
51557;DHT22;38766;53.194;5.532;2024-01-10T10:33:04;-0.10;99.90
51557;DHT22;38766;53.194;5.532;2024-01-10T10:35:32;0.50;99.90
51557;DHT22;38766;53.194;5.532;2024-01-10T10:37:59;1.30;99.90
51557;DHT22;38766;53.194;5.532;2024-01-10T10:40:24;2.00;99.90
51557;DHT22;38766;53.194;5.532;2024-01-10T10:42:57;2.60;99.90
51557;DHT22;38766;53.194;5.532;2024-01-10T10:45:23;3.20;99.90
51557;DHT22;38766;53.194;5.532;2024-01-10T10:47:58;3.60;99.90
51557;DHT22;38766;53.194;5.532;2024-01-10T10:50:28;4.00;99.90
51557;DHT22;38766;53.194;5.532;2024-01-10T10:52:55;4.20;99.90
51557;DHT22;38766;53.194;5.532;2024-01-10T10:55:24;4.50;99.90
51557;DHT22;38766;53.194;5.532;2024-01-10T10:57:52;4.70;99.90
51557;DHT22;38766;53.194;5.532;2024-01-10T11:00:20;4.90;99.30
51557;DHT22;38766;53.194;5.532;2024-01-10T11:02:50;5.00;98.20
51557;DHT22;38766;53.194;5.532;2024-01-10T11:05:16;5.10;97.30
51557;DHT22;38766;53.194;5.532;2024-01-10T11:07:43;5.20;97.20
51557;DHT22;38766;53.194;5.532;2024-01-10T11:10:16;5.40;97.20
51557;DHT22;38766;53.194;5.532;2024-01-10T11:21:19;5.70;92.80
51557;DHT22;38766;53.194;5.532;2024-01-10T11:23:54;5.70;93.80
51557;DHT22;38766;53.194;5.532;2024-01-10T11:26:21;5.70;94.50
51557;DHT22;38766;53.194;5.532;2024-01-10T11:28:47;5.80;93.80
51557;DHT22;38766;53.194;5.532;2024-01-10T11:31:14;5.80;94.40
51557;DHT22;38766;53.194;5.532;2024-01-10T11:33:43;5.80;94.50
51557;DHT22;38766;53.194;5.532;2024-01-10T11:36:16;5.80;94.20
51557;DHT22;38766;53.194;5.532;2024-01-10T11:39:04;5.70;93.40
51557;DHT22;38766;53.194;5.532;2024-01-10T11:41:39;5.80;90.30
51557;DHT22;38766;53.194;5.532;2024-01-10T11:46:42;5.70;93.50
51557;DHT22;38766;53.194;5.532;2024-01-10T11:49:09;5.60;93.10
51557;DHT22;38766;53.194;5.532;2024-01-10T11:51:38;5.60;93.10
51557;DHT22;38766;53.194;5.532;2024-01-10T11:54:06;5.50;92.80
51557;DHT22;38766;53.194;5.532;2024-01-10T11:56:39;5.40;93.20
51557;DHT22;38766;53.194;5.532;2024-01-10T11:59:13;5.30;92.40
51557;DHT22;38766;53.194;5.532;2024-01-10T12:01:42;5.20;92.30
51557;DHT22;38766;53.194;5.532;2024-01-10T12:04:08;5.10;92.80
51557;DHT22;38766;53.194;5.532;2024-01-10T12:06:37;4.90;92.50
51557;DHT22;38766;53.194;5.532;2024-01-10T12:09:03;4.70;92.90
51557;DHT22;38766;53.194;5.532;2024-01-10T12:11:39;4.70;93.50
51557;DHT22;38766;53.194;5.532;2024-01-10T12:14:06;4.50;92.70
51557;DHT22;38766;53.194;5.532;2024-01-10T12:16:35;4.30;93.20
51557;DHT22;38766;53.194;5.532;2024-01-10T12:19:01;4.30;93.40
51557;DHT22;38766;53.194;5.532;2024-01-10T12:21:27;4.30;93.60
51557;DHT22;38766;53.194;5.532;2024-01-10T12:23:52;4.30;93.70
51557;DHT22;38766;53.194;5.532;2024-01-10T12:26:19;4.20;94.00
51557;DHT22;38766;53.194;5.532;2024-01-10T12:29:00;4.10;93.90
51557;DHT22;38766;53.194;5.532;2024-01-10T12:31:30;4.00;93.70
51557;DHT22;38766;53.194;5.532;2024-01-10T12:33:56;3.70;93.40
51557;DHT22;38766;53.194;5.532;2024-01-10T12:36:22;3.50;93.40
51557;DHT22;38766;53.194;5.532;2024-01-10T12:38:47;3.30;94.10
51557;DHT22;38766;53.194;5.532;2024-01-10T12:41:17;3.20;94.20
51557;DHT22;38766;53.194;5.532;2024-01-10T12:43:48;3.00;94.60
51557;DHT22;38766;53.194;5.532;2024-01-10T12:46:14;3.00;95.10
51557;DHT22;38766;53.194;5.532;2024-01-10T12:48:41;2.90;95.20
51557;DHT22;38766;53.194;5.532;2024-01-10T12:51:13;2.90;95.00
51557;DHT22;38766;53.194;5.532;2024-01-10T12:53:43;2.90;95.00
51557;DHT22;38766;53.194;5.532;2024-01-10T12:56:10;2.80;94.80
51557;DHT22;38766;53.194;5.532;2024-01-10T12:58:40;2.80;95.60
51557;DHT22;38766;53.194;5.532;2024-01-10T13:01:08;2.70;95.70
51557;DHT22;38766;53.194;5.532;2024-01-10T13:03:34;2.70;95.70
51557;DHT22;38766;53.194;5.532;2024-01-10T13:06:00;2.60;95.50
51557;DHT22;38766;53.194;5.532;2024-01-10T13:08:25;2.60;95.70
51557;DHT22;38766;53.194;5.532;2024-01-10T13:10:51;2.60;95.90
51557;DHT22;38766;53.194;5.532;2024-01-10T13:13:18;2.60;96.00
51557;DHT22;38766;53.194;5.532;2024-01-10T13:15:44;2.50;96.00
51557;DHT22;38766;53.194;5.532;2024-01-10T13:18:13;2.40;96.60
51557;DHT22;38766;53.194;5.532;2024-01-10T13:20:41;2.40;96.60
51557;DHT22;38766;53.194;5.532;2024-01-10T13:23:07;2.30;96.60
51557;DHT22;38766;53.194;5.532;2024-01-10T13:25:34;2.20;96.90
51557;DHT22;38766;53.194;5.532;2024-01-10T13:27:59;2.10;96.70
51557;DHT22;38766;53.194;5.532;2024-01-10T13:30:26;2.10;96.50
51557;DHT22;38766;53.194;5.532;2024-01-10T13:32:52;2.10;96.70
51557;DHT22;38766;53.194;5.532;2024-01-10T13:35:18;2.00;97.10
51557;DHT22;38766;53.194;5.532;2024-01-10T13:37:44;2.00;97.30
51557;DHT22;38766;53.194;5.532;2024-01-10T13:40:10;2.00;97.20
51557;DHT22;38766;53.194;5.532;2024-01-10T13:42:42;1.90;97.40
51557;DHT22;38766;53.194;5.532;2024-01-10T13:45:09;1.90;97.20
51557;DHT22;38766;53.194;5.532;2024-01-10T13:47:38;2.00;97.10
51557;DHT22;38766;53.194;5.532;2024-01-10T13:50:05;1.90;97.50
51557;DHT22;38766;53.194;5.532;2024-01-10T13:52:32;1.90;97.60
51557;DHT22;38766;53.194;5.532;2024-01-10T13:54:57;1.90;98.10
51557;DHT22;38766;53.194;5.532;2024-01-10T13:57:23;1.90;98.10
51557;DHT22;38766;53.194;5.532;2024-01-10T13:59:49;1.90;98.20
51557;DHT22;38766;53.194;5.532;2024-01-10T14:02:15;1.90;97.60
51557;DHT22;38766;53.194;5.532;2024-01-10T14:04:41;1.90;97.90
51557;DHT22;38766;53.194;5.532;2024-01-10T14:07:07;1.90;98.00
51557;DHT22;38766;53.194;5.532;2024-01-10T14:09:32;1.80;98.20
51557;DHT22;38766;53.194;5.532;2024-01-10T14:11:58;1.80;98.30
51557;DHT22;38766;53.194;5.532;2024-01-10T14:14:24;1.80;97.90
51557;DHT22;38766;53.194;5.532;2024-01-10T14:16:50;1.80;98.20
51557;DHT22;38766;53.194;5.532;2024-01-10T14:19:16;1.70;98.10
51557;DHT22;38766;53.194;5.532;2024-01-10T14:21:44;1.70;98.60
51557;DHT22;38766;53.194;5.532;2024-01-10T14:24:12;1.70;99.00
51557;DHT22;38766;53.194;5.532;2024-01-10T14:26:37;1.60;99.20
51557;DHT22;38766;53.194;5.532;2024-01-10T14:29:04;1.60;99.20
51557;DHT22;38766;53.194;5.532;2024-01-10T14:31:30;1.60;99.30
51557;DHT22;38766;53.194;5.532;2024-01-10T14:33:55;1.50;99.50
51557;DHT22;38766;53.194;5.532;2024-01-10T14:36:22;1.40;99.90
51557;DHT22;38766;53.194;5.532;2024-01-10T14:38:48;1.30;99.90
51557;DHT22;38766;53.194;5.532;2024-01-10T14:41:13;1.30;99.90
51557;DHT22;38766;53.194;5.532;2024-01-10T14:43:39;1.20;99.90
51557;DHT22;38766;53.194;5.532;2024-01-10T14:46:05;1.20;99.90
51557;DHT22;38766;53.194;5.532;2024-01-10T14:48:34;1.20;99.90
51557;DHT22;38766;53.194;5.532;2024-01-10T14:51:00;1.10;99.90
51557;DHT22;38766;53.194;5.532;2024-01-10T14:53:26;1.10;99.90
51557;DHT22;38766;53.194;5.532;2024-01-10T14:55:52;1.00;99.90
51557;DHT22;38766;53.194;5.532;2024-01-10T14:58:18;1.00;99.90
51557;DHT22;38766;53.194;5.532;2024-01-10T15:00:44;1.00;99.90
51557;DHT22;38766;53.194;5.532;2024-01-10T15:03:10;0.90;99.90
51557;DHT22;38766;53.194;5.532;2024-01-10T15:05:36;0.90;99.90
51557;DHT22;38766;53.194;5.532;2024-01-10T15:08:02;0.90;99.90
51557;DHT22;38766;53.194;5.532;2024-01-10T15:10:31;0.90;99.90
51557;DHT22;38766;53.194;5.532;2024-01-10T15:12:56;0.80;99.90
51557;DHT22;38766;53.194;5.532;2024-01-10T15:15:22;0.90;99.90
51557;DHT22;38766;53.194;5.532;2024-01-10T15:17:47;0.80;99.90
51557;DHT22;38766;53.194;5.532;2024-01-10T15:20:13;0.70;99.90
51557;DHT22;38766;53.194;5.532;2024-01-10T15:22:39;0.70;99.90
51557;DHT22;38766;53.194;5.532;2024-01-10T15:25:05;0.60;99.90
51557;DHT22;38766;53.194;5.532;2024-01-10T15:27:31;0.50;99.90
51557;DHT22;38766;53.194;5.532;2024-01-10T15:29:58;0.50;99.90
51557;DHT22;38766;53.194;5.532;2024-01-10T15:32:24;0.50;99.90
51557;DHT22;38766;53.194;5.532;2024-01-10T15:34:50;0.40;99.90
51557;DHT22;38766;53.194;5.532;2024-01-10T15:37:16;0.40;99.90
51557;DHT22;38766;53.194;5.532;2024-01-10T15:39:41;0.40;99.90
51557;DHT22;38766;53.194;5.532;2024-01-10T15:42:07;0.30;99.90
51557;DHT22;38766;53.194;5.532;2024-01-10T15:44:42;0.30;99.90
51557;DHT22;38766;53.194;5.532;2024-01-10T15:47:09;0.20;99.90